Walla Walla, Washington
Current Conditions -  °F | °C
As of 4:53 PM on Tuesday 21 Oct 2014 (Local Time) from KALW Reporting Station
Clear Clear  
Wind Chill: 17°   Ceiling: Unl
Heat Index: 17°   Visibility: 10mi
Dew Point:   Wind: 12mph
Humidity: 46%   Direction: 240°WSW
Pressure: 29.98"   Gusts: NA
Location:  46.07°N, 118.34°W
Report Text: KALW 212353Z 24010KT 10SM CLR 17/06 A2998 RMK AO2 SLP151 T01720056 10178 20139 55000
Loading
Personal Weather Stations






























Interactive Weather Map New forecast layout! Learn more

10-Day Weather Forecast

Advertisements
Track Severe Weather on mobile